Time;durP1;ratioP1;P1;durP2;ratioP2;P2;SDS_P1;SDS_P2;PMS_P1;PMS_P2;Temp;Humidity;BMP_temperature;BMP_pressure;BME280_temperature;BME280_humidity;BME280_pressure;Samples;Min_cycle;Max_cycle;Signal;HPM_P1;HPM_P2
2022/01/18 00:01:17;;;;;;;32.70;15.43;;;;;;;2.12;100.00;100895.28;5129277;27;20040;-81
2022/01/18 00:03:47;;;;;;;34.78;16.38;;;;;;;2.30;100.00;100901.41;5127533;27;20043;-81
2022/01/18 00:06:13;;;;;;;38.30;15.50;;;;;;;2.24;100.00;100891.03;5132708;27;20047;-81
2022/01/18 00:08:42;;;;;;;37.47;16.30;;;;;;;2.28;100.00;100901.50;5131398;27;20479;-81
2022/01/18 00:11:09;;;;;;;38.10;16.70;;;;;;;2.28;100.00;100911.38;5131619;27;20047;-81
2022/01/18 00:13:39;;;;;;;33.70;16.38;;;;;;;2.19;100.00;100899.34;5133270;27;20395;-81
2022/01/18 00:16:24;;;;;;;36.83;16.27;;;;;;;2.27;100.00;100902.47;5129917;27;20051;-82
2022/01/18 00:18:52;;;;;;;36.38;16.55;;;;;;;2.20;100.00;100887.66;5128796;27;20559;-81
2022/01/18 00:21:29;;;;;;;36.30;17.60;;;;;;;2.28;100.00;100906.88;5132487;27;20058;-81
2022/01/18 00:23:58;;;;;;;39.95;17.80;;;;;;;2.01;100.00;100879.81;5129645;27;20486;-81
2022/01/18 00:26:29;;;;;;;33.55;17.00;;;;;;;2.10;100.00;100897.19;5131935;27;20043;-81
2022/01/18 00:29:01;;;;;;;34.72;17.25;;;;;;;2.06;100.00;100896.53;5130777;27;20071;-81
2022/01/18 00:34:18;;;;;;;35.25;16.50;;;;;;;2.15;100.00;100902.28;5133717;27;20133;-81
2022/01/18 00:36:57;;;;;;;39.40;16.40;;;;;;;2.16;100.00;100901.34;5138373;27;20051;-81
2022/01/18 00:39:26;;;;;;;35.28;15.45;;;;;;;2.15;100.00;100900.47;5134506;27;20095;-81
2022/01/18 00:41:54;;;;;;;31.10;16.52;;;;;;;2.22;100.00;100917.09;5128555;27;20051;-81
2022/01/18 00:44:21;;;;;;;31.45;16.00;;;;;;;2.20;100.00;100921.66;5132765;27;20092;-81
2022/01/18 00:46:48;;;;;;;39.33;16.40;;;;;;;2.10;100.00;100918.66;5134369;27;20050;-81
2022/01/18 00:49:15;;;;;;;35.80;16.60;;;;;;;2.10;100.00;100919.50;5129104;27;20039;-81
2022/01/18 00:51:44;;;;;;;39.45;18.20;;;;;;;2.19;100.00;100939.59;5132657;27;20047;-82
2022/01/18 00:54:20;;;;;;;38.67;16.80;;;;;;;2.16;100.00;100936.25;5131870;27;20693;-81
2022/01/18 00:56:51;;;;;;;33.35;16.90;;;;;;;2.06;100.00;100923.34;5133985;27;20043;-82
2022/01/18 00:59:19;;;;;;;36.85;17.17;;;;;;;2.11;100.00;100923.09;5132844;27;20077;-82
2022/01/18 01:01:46;;;;;;;44.13;17.33;;;;;;;2.27;100.00;100915.00;5132213;27;20546;-82
2022/01/18 01:04:18;;;;;;;37.45;16.35;;;;;;;2.13;100.00;100902.38;5133106;27;20520;-82
2022/01/18 01:06:45;;;;;;;38.95;17.35;;;;;;;2.10;100.00;100924.03;5135254;27;20047;-82
2022/01/18 01:09:11;;;;;;;36.92;16.67;;;;;;;2.06;100.00;100926.03;5135680;27;20061;-82
2022/01/18 01:11:40;;;;;;;32.92;16.08;;;;;;;2.07;100.00;100929.56;5134839;27;20051;-81
2022/01/18 01:14:14;;;;;;;33.08;16.33;;;;;;;2.11;100.00;100941.88;5135310;27;20047;-82
2022/01/18 01:16:57;;;;;;;41.97;17.58;;;;;;;2.02;100.00;100932.53;5134405;27;20509;-82
2022/01/18 01:19:48;;;;;;;31.08;15.73;;;;;;;2.09;100.00;100933.03;5131249;27;20046;-82
2022/01/18 01:42:03;;;;;;;35.75;16.13;;;;;;;2.29;100.00;100953.38;5130726;27;20049;-82
2022/01/18 01:44:47;;;;;;;38.67;15.90;;;;;;;2.28;100.00;100959.69;5134694;27;20243;-81
2022/01/18 01:47:20;;;;;;;42.08;15.70;;;;;;;2.10;100.00;100949.03;5133633;27;20077;-81
2022/01/18 01:49:50;;;;;;;35.58;16.33;;;;;;;2.16;100.00;100977.34;5135020;27;20047;-82
2022/01/18 01:52:20;;;;;;;34.55;16.65;;;;;;;2.03;100.00;100961.09;5134552;27;20043;-82
2022/01/18 01:54:47;;;;;;;39.78;17.77;;;;;;;2.03;100.00;100965.56;5134525;27;20051;-82
2022/01/18 01:57:13;;;;;;;39.70;15.85;;;;;;;2.08;100.00;100968.88;5131389;27;20103;-81
2022/01/18 01:59:41;;;;;;;39.40;16.67;;;;;;;2.06;100.00;100962.72;5134486;27;20054;-82
2022/01/18 02:02:08;;;;;;;44.05;16.05;;;;;;;2.07;100.00;100964.44;5134084;27;20043;-82
2022/01/18 02:04:36;;;;;;;39.38;16.60;;;;;;;2.21;100.00;100964.50;5133892;27;20371;-82
2022/01/18 02:07:04;;;;;;;33.80;16.20;;;;;;;2.28;100.00;100959.69;5134350;27;20055;-82
2022/01/18 02:09:31;;;;;;;35.08;15.80;;;;;;;2.15;100.00;100947.91;5134623;27;20047;-81
2022/01/18 02:12:00;;;;;;;39.42;17.48;;;;;;;2.10;100.00;100948.19;5134361;27;20039;-82
2022/01/18 02:14:29;;;;;;;44.35;16.58;;;;;;;2.36;100.00;100959.25;5133530;27;20065;-82
2022/01/18 02:22:27;;;;;;;43.53;17.33;;;;;;;2.16;100.00;100944.28;5116461;27;20262;-82
2022/01/18 02:24:54;;;;;;;36.03;17.20;;;;;;;2.08;100.00;100950.94;5134068;27;20125;-82
2022/01/18 02:27:21;;;;;;;34.88;16.67;;;;;;;2.27;100.00;100952.56;5133930;27;20072;-82
2022/01/18 02:29:48;;;;;;;40.40;17.52;;;;;;;2.15;100.00;100943.41;5129042;27;20050;-81
2022/01/18 02:32:14;;;;;;;38.47;17.42;;;;;;;2.22;100.00;100960.03;5134108;27;20050;-82
2022/01/18 02:34:41;;;;;;;39.85;17.92;;;;;;;2.12;100.00;100944.47;5133728;27;20406;-82
2022/01/18 02:37:10;;;;;;;39.20;16.42;;;;;;;2.23;100.00;100959.06;5133793;28;20035;-82
2022/01/18 02:39:39;;;;;;;41.10;17.67;;;;;;;2.41;100.00;100968.78;5133534;27;20046;-82
2022/01/18 02:42:08;;;;;;;38.70;18.92;;;;;;;2.33;100.00;100944.16;5134427;27;20055;-82
2022/01/18 02:44:36;;;;;;;36.55;16.77;;;;;;;2.47;100.00;100951.44;5133180;27;20075;-82
2022/01/18 02:47:04;;;;;;;41.08;19.25;;;;;;;2.31;100.00;100951.44;5136502;27;20054;-82
2022/01/18 02:49:32;;;;;;;35.80;17.30;;;;;;;2.30;100.00;100945.22;5133915;28;20051;-82
2022/01/18 02:52:01;;;;;;;36.17;17.13;;;;;;;2.27;100.00;100947.22;5132867;27;20055;-82
2022/01/18 02:54:28;;;;;;;36.08;17.65;;;;;;;2.39;100.00;100951.88;5132784;27;20039;-82
2022/01/18 02:57:00;;;;;;;36.45;17.20;;;;;;;2.29;100.00;100935.44;5132029;27;20043;-82
2022/01/18 02:59:33;;;;;;;34.85;16.98;;;;;;;2.21;100.00;100931.47;5132036;27;20498;-82
2022/01/18 03:04:49;;;;;;;42.83;17.13;;;;;;;2.23;100.00;100940.28;5138411;27;20045;-82
2022/01/18 03:07:16;;;;;;;34.15;15.63;;;;;;;2.26;100.00;100937.44;5133213;27;20043;-82
2022/01/18 03:09:43;;;;;;;34.20;16.85;;;;;;;2.13;100.00;100923.84;5133891;27;20084;-82
2022/01/18 03:12:12;;;;;;;38.30;18.10;;;;;;;2.21;100.00;100935.00;5134048;28;20054;-82
2022/01/18 03:14:40;;;;;;;39.42;18.40;;;;;;;2.23;100.00;100941.16;5133285;27;20040;-82
2022/01/18 03:17:09;;;;;;;39.75;17.50;;;;;;;2.15;100.00;100916.56;5137317;27;20126;-82
2022/01/18 03:19:36;;;;;;;38.08;17.65;;;;;;;2.18;100.00;100927.13;5136930;27;20077;-82
2022/01/18 03:22:04;;;;;;;43.55;17.35;;;;;;;2.25;100.00;100938.38;5137463;27;20054;-82
2022/01/18 03:24:54;;;;;;;42.17;18.40;;;;;;;2.21;100.00;100945.72;5135371;27;20158;-82
2022/01/18 03:30:10;;;;;;;37.60;17.77;;;;;;;2.20;100.00;100941.34;5130240;27;20176;-82
2022/01/18 03:32:38;;;;;;;38.00;18.77;;;;;;;2.23;100.00;100945.66;5137381;27;20050;-82
2022/01/18 03:35:08;;;;;;;36.28;18.05;;;;;;;2.19;100.00;100938.75;5137039;27;20490;-82
2022/01/18 03:37:36;;;;;;;40.53;19.02;;;;;;;2.28;100.00;100949.81;5137564;27;20085;-82
2022/01/18 03:40:04;;;;;;;32.20;16.88;;;;;;;2.23;100.00;100945.66;5137257;27;20495;-82
2022/01/18 03:42:42;;;;;;;40.58;17.77;;;;;;;2.21;100.00;100929.63;5137534;27;20510;-82
2022/01/18 03:45:12;;;;;;;40.42;18.45;;;;;;;2.25;100.00;100943.75;5133812;27;20051;-82
2022/01/18 03:47:39;;;;;;;35.72;16.50;;;;;;;2.13;100.00;100923.84;5135081;27;20118;-82
2022/01/18 03:50:08;;;;;;;40.47;16.65;;;;;;;2.26;100.00;100945.50;5135249;27;20554;-82
2022/01/18 03:52:35;;;;;;;33.92;15.68;;;;;;;2.23;100.00;100932.22;5134637;27;20050;-81
2022/01/18 03:55:03;;;;;;;35.33;17.27;;;;;;;2.25;100.00;100931.19;5135973;27;20478;-82
2022/01/18 03:57:30;;;;;;;36.50;17.38;;;;;;;2.23;100.00;100941.16;5137205;27;20047;-81
2022/01/18 03:59:58;;;;;;;36.53;16.45;;;;;;;2.27;100.00;100955.25;5136612;27;20047;-82
2022/01/18 04:02:25;;;;;;;37.28;17.30;;;;;;;2.26;100.00;100959.78;5135909;27;20103;-82
2022/01/18 04:04:51;;;;;;;33.75;16.85;;;;;;;2.26;100.00;100966.97;5140298;27;20043;-82
2022/01/18 04:07:18;;;;;;;34.05;16.45;;;;;;;2.22;100.00;100958.22;5135151;27;20121;-82
2022/01/18 04:09:45;;;;;;;38.70;16.80;;;;;;;2.28;100.00;100965.06;5134749;27;20051;-82
2022/01/18 04:12:12;;;;;;;36.17;17.77;;;;;;;2.30;100.00;100957.78;5134905;27;20088;-82
2022/01/18 04:14:42;;;;;;;40.33;17.02;;;;;;;2.39;100.00;100973.34;5134252;27;20486;-82
2022/01/18 04:17:19;;;;;;;39.67;18.20;;;;;;;2.22;100.00;100958.22;5139652;27;20043;-81
2022/01/18 04:28:11;;;;;;;28.25;15.38;;;;;;;2.15;100.00;100977.44;5134744;27;20058;-82
2022/01/18 04:30:38;;;;;;;36.25;17.48;;;;;;;2.14;100.00;100976.56;5132101;27;20470;-82
2022/01/18 04:33:06;;;;;;;38.33;16.73;;;;;;;2.12;100.00;100970.41;5132607;27;20116;-82
2022/01/18 04:35:33;;;;;;;36.85;17.35;;;;;;;2.03;100.00;100958.41;5133390;27;20047;-82
2022/01/18 04:38:00;;;;;;;34.47;16.23;;;;;;;2.18;100.00;100969.22;5133836;27;20051;-82
2022/01/18 04:40:30;;;;;;;37.65;17.55;;;;;;;2.24;100.00;100985.84;5127701;27;20039;-82
2022/01/18 04:43:13;;;;;;;32.45;16.17;;;;;;;2.18;100.00;100985.31;5133964;27;20183;-82
2022/01/18 04:48:28;;;;;;;37.97;15.10;;;;;;;2.27;100.00;100995.53;5132565;27;20176;-82
2022/01/18 04:51:01;;;;;;;42.78;18.08;;;;;;;2.25;100.00;100984.88;5134234;27;20563;-82
2022/01/18 04:53:30;;;;;;;38.00;18.52;;;;;;;2.29;100.00;100988.25;5128329;27;20035;-82
2022/01/18 04:56:00;;;;;;;38.70;17.55;;;;;;;2.25;100.00;100981.34;5134312;27;20107;-82
2022/01/18 04:58:27;;;;;;;58.55;19.40;;;;;;;2.18;100.00;100986.16;5126271;27;20048;-82
2022/01/18 05:00:58;;;;;;;40.67;17.48;;;;;;;2.27;100.00;100995.53;5134576;27;20074;-82
2022/01/18 05:03:26;;;;;;;42.08;18.80;;;;;;;2.29;100.00;100982.91;5126889;27;20050;-81
2022/01/18 05:05:56;;;;;;;42.90;18.60;;;;;;;2.29;100.00;101002.53;5133823;27;20450;-82
2022/01/18 05:08:23;;;;;;;40.33;17.60;;;;;;;2.31;100.00;101013.19;5133721;27;20122;-82
2022/01/18 05:10:54;;;;;;;45.38;17.20;;;;;;;2.23;100.00;101005.56;5137747;27;20084;-82
2022/01/18 05:13:40;;;;;;;40.83;19.00;;;;;;;2.07;100.00;100989.44;5133468;27;20746;-82
2022/01/18 05:16:26;;;;;;;40.28;18.55;;;;;;;2.15;100.00;100994.38;5131496;27;20406;-82
2022/01/18 05:24:19;;;;;;;39.03;17.23;;;;;;;2.14;100.00;101008.78;5132865;27;20070;-82
2022/01/18 05:26:46;;;;;;;39.95;18.60;;;;;;;2.07;100.00;100983.22;5133839;27;20107;-82
2022/01/18 05:29:13;;;;;;;42.80;18.70;;;;;;;2.11;100.00;100999.06;5133613;27;20058;-82
2022/01/18 05:31:39;;;;;;;44.97;17.77;;;;;;;2.09;100.00;100997.41;5133494;27;20504;-82
2022/01/18 05:34:08;;;;;;;39.40;17.17;;;;;;;2.08;100.00;101001.94;5133661;27;20567;-82
2022/01/18 05:36:34;;;;;;;40.50;18.48;;;;;;;2.13;100.00;101005.19;5133939;27;20433;-82
2022/01/18 05:39:02;;;;;;;39.22;17.98;;;;;;;2.01;100.00;100983.56;5132920;27;20047;-82
2022/01/18 05:41:28;;;;;;;39.85;18.60;;;;;;;2.09;100.00;100992.94;5138015;27;20050;-82
2022/01/18 05:43:55;;;;;;;37.50;17.00;;;;;;;2.17;100.00;100991.63;5130135;27;20078;-82
2022/01/18 05:46:22;;;;;;;36.92;16.63;;;;;;;2.28;100.00;101008.00;5128780;27;20398;-82
2022/01/18 05:48:49;;;;;;;32.88;15.30;;;;;;;2.16;100.00;100992.59;5133161;27;20124;-82
2022/01/18 05:51:17;;;;;;;38.80;17.35;;;;;;;2.16;100.00;100997.94;5131170;27;20628;-82
2022/01/18 05:53:44;;;;;;;35.80;15.63;;;;;;;2.09;100.00;101009.03;5126978;27;20043;-82
2022/01/18 05:56:11;;;;;;;32.80;15.52;;;;;;;2.11;100.00;101006.25;5130350;27;20050;-82
2022/01/18 05:58:38;;;;;;;41.92;19.77;;;;;;;2.13;100.00;101010.56;5131201;27;20043;-82
2022/01/18 06:01:05;;;;;;;42.50;18.13;;;;;;;2.10;100.00;101010.75;5132671;27;20054;-82
2022/01/18 06:03:36;;;;;;;43.40;17.63;;;;;;;2.09;100.00;101006.34;5132632;27;20050;-82
2022/01/18 06:08:57;;;;;;;40.13;16.73;;;;;;;2.18;100.00;101014.81;5083052;27;20058;-82
2022/01/18 06:11:24;;;;;;;36.55;16.02;;;;;;;2.10;100.00;101021.47;5130861;27;20047;-82
2022/01/18 06:13:51;;;;;;;43.78;17.00;;;;;;;2.04;100.00;101015.59;5130306;27;20054;-82
2022/01/18 06:16:18;;;;;;;38.75;16.70;;;;;;;1.92;100.00;101007.25;5128304;27;20088;-82
2022/01/18 06:18:44;;;;;;;40.50;17.23;;;;;;;2.04;100.00;101004.88;5132162;27;20478;-82
2022/01/18 06:21:11;;;;;;;43.22;17.67;;;;;;;2.10;100.00;101020.63;5132509;27;20047;-82
2022/01/18 06:23:38;;;;;;;45.72;17.13;;;;;;;2.06;100.00;101025.31;5131455;27;20087;-82
2022/01/18 06:26:06;;;;;;;37.90;17.77;;;;;;;2.03;100.00;101019.22;5131736;27;20490;-82
2022/01/18 06:28:34;;;;;;;35.13;16.10;;;;;;;2.00;100.00;101020.25;5127764;27;20463;-82
2022/01/18 06:31:01;;;;;;;32.22;13.93;;;;;;;1.94;100.00;101016.09;5127613;27;20099;-85
2022/01/18 06:33:28;;;;;;;29.67;14.57;;;;;;;1.80;100.00;101009.75;5132328;27;20085;-86
2022/01/18 06:35:55;;;;;;;41.75;18.70;;;;;;;1.74;100.00;101024.34;5131425;27;20074;-88
2022/01/18 06:38:22;;;;;;;43.30;18.27;;;;;;;1.71;100.00;101020.03;5132499;27;20047;-85
2022/01/18 06:40:50;;;;;;;34.05;15.93;;;;;;;1.73;100.00;101033.34;5132487;27;20047;-86
2022/01/18 06:43:19;;;;;;;29.52;15.35;;;;;;;1.67;100.00;101039.94;5130902;27;20050;-86
2022/01/18 06:45:46;;;;;;;33.03;16.42;;;;;;;1.55;100.00;101040.56;5128494;27;20051;-82
2022/01/18 06:48:13;;;;;;;31.67;15.80;;;;;;;1.50;100.00;101046.16;5132709;27;20051;-83
2022/01/18 06:50:40;;;;;;;30.45;16.08;;;;;;;1.37;100.00;101058.47;5135900;27;20543;-82
2022/01/18 06:53:07;;;;;;;33.33;15.70;;;;;;;1.31;100.00;101058.78;5136285;27;20050;-83
2022/01/18 06:55:34;;;;;;;36.40;16.33;;;;;;;1.14;100.00;101052.47;5129920;27;20055;-83
2022/01/18 06:58:02;;;;;;;37.85;16.23;;;;;;;1.12;100.00;101059.72;5132496;27;20058;-82
2022/01/18 07:00:30;;;;;;;40.08;16.17;;;;;;;1.25;100.00;101049.28;5129943;27;20051;-82
2022/01/18 07:02:57;;;;;;;33.88;15.15;;;;;;;1.19;100.00;101071.88;5137575;27;20583;-83
2022/01/18 07:05:27;;;;;;;31.40;14.40;;;;;;;1.20;100.00;101062.88;5136666;27;20539;-83
2022/01/18 07:07:57;;;;;;;35.05;17.15;;;;;;;0.95;100.00;101079.34;5136859;27;20166;-85
2022/01/18 07:10:25;;;;;;;;;;;;;;;0.90;100.00;101076.00;5135391;27;20062;-82
2022/01/18 07:12:56;;;;;;;36.05;15.60;;;;;;;0.72;100.00;101055.50;5123843;27;19988;-83
2022/01/18 07:15:22;;;;;;;34.75;14.77;;;;;;;0.81;100.00;101080.03;5136623;27;20039;-82
2022/01/18 07:17:50;;;;;;;26.33;13.48;;;;;;;0.62;100.00;101065.81;5136099;27;20099;-83
2022/01/18 07:20:17;;;;;;;28.45;13.70;;;;;;;0.81;100.00;101095.19;5136205;27;20055;-83
2022/01/18 07:22:44;;;;;;;31.20;13.63;;;;;;;0.87;100.00;101098.47;5136026;27;20379;-82
2022/01/18 07:25:13;;;;;;;32.78;13.98;;;;;;;0.67;100.00;101083.34;5136449;27;20050;-83
2022/01/18 07:27:40;;;;;;;33.55;14.25;;;;;;;0.69;100.00;101084.16;5133503;27;20116;-82
2022/01/18 07:30:10;;;;;;;36.22;15.48;;;;;;;0.81;100.00;101096.09;5130175;27;20043;-82
2022/01/18 07:32:37;;;;;;;35.45;14.23;;;;;;;0.86;100.00;101101.22;5127324;27;20051;-82
2022/01/18 07:35:08;;;;;;;36.80;14.50;;;;;;;0.76;100.00;101091.91;5133563;27;20204;-83
2022/01/18 07:37:34;;;;;;;33.08;13.35;;;;;;;0.88;100.00;101105.53;5140455;27;20128;-82
2022/01/18 07:40:02;;;;;;;26.88;13.25;;;;;;;0.95;100.00;101110.59;5133232;27;20100;-83
2022/01/18 07:42:30;;;;;;;30.08;14.13;;;;;;;0.92;100.00;101103.59;5133587;27;20526;-83
2022/01/18 07:44:56;;;;;;;25.60;13.52;;;;;;;0.98;100.00;101105.97;5150100;27;20475;-83
2022/01/18 07:47:24;;;;;;;30.60;13.73;;;;;;;0.96;100.00;101098.94;5147577;27;20050;-83
2022/01/18 07:49:51;;;;;;;27.48;12.98;;;;;;;1.15;100.00;101104.25;5139613;27;20478;-83
2022/01/18 07:52:19;;;;;;;32.40;10.20;;;;;;;1.28;100.00;101105.38;5128749;27;20549;-83
2022/01/18 07:54:46;;;;;;;31.83;13.25;;;;;;;1.21;100.00;101109.31;5154261;27;20043;-83
2022/01/18 07:57:15;;;;;;;30.40;11.95;;;;;;;1.22;100.00;101095.84;5138741;27;20058;-83
2022/01/18 07:59:42;;;;;;;26.33;11.45;;;;;;;1.11;100.00;101100.84;5137214;27;20485;-83
2022/01/18 08:02:09;;;;;;;29.42;12.55;;;;;;;1.19;100.00;101104.03;5129879;27;20073;-83
2022/01/18 08:04:38;;;;;;;25.33;11.35;;;;;;;1.03;100.00;101078.94;5136179;27;20043;-83
2022/01/18 08:07:07;;;;;;;31.23;12.90;;;;;;;1.15;100.00;101106.94;5134750;27;20461;-82
2022/01/18 08:09:38;;;;;;;28.98;13.05;;;;;;;1.16;100.00;101108.66;5135080;27;20043;-83
2022/01/18 08:12:11;;;;;;;26.10;11.55;;;;;;;1.30;100.00;101114.19;5135979;27;20058;-82
2022/01/18 08:14:42;;;;;;;27.17;12.55;;;;;;;1.26;100.00;101103.72;5136616;27;20050;-83
2022/01/18 08:17:10;;;;;;;30.40;12.73;;;;;;;1.26;100.00;101095.69;5136993;27;20134;-83
2022/01/18 08:19:37;;;;;;;24.02;13.25;;;;;;;1.22;100.00;101085.13;5132876;27;20145;-82
2022/01/18 08:22:05;;;;;;;30.38;13.85;;;;;;;1.20;100.00;101092.34;5136078;27;20054;-83
2022/01/18 08:24:32;;;;;;;32.03;15.18;;;;;;;1.20;100.00;101081.63;5136367;27;20114;-83
2022/01/18 08:27:01;;;;;;;32.33;16.23;;;;;;;1.32;100.00;101095.38;5135339;27;20051;-83
2022/01/18 08:29:31;;;;;;;36.22;17.85;;;;;;;1.48;100.00;101114.22;5127797;27;20407;-88
2022/01/18 08:31:58;;;;;;;;;;;;;;;1.66;100.00;101123.13;5137172;27;20054;-85
2022/01/18 08:34:25;;;;;;;43.05;16.75;;;;;;;1.57;100.00;101100.34;5118257;27;20374;-86
2022/01/18 08:36:55;;;;;;;33.53;14.98;;;;;;;1.77;100.00;101118.06;5123741;27;20043;-85
2022/01/18 08:39:22;;;;;;;34.53;15.27;;;;;;;1.73;100.00;101113.78;5134710;27;20135;-86
2022/01/18 08:41:52;;;;;;;46.67;16.92;;;;;;;1.86;100.00;101097.94;5135041;27;20054;-86
2022/01/18 08:44:26;;;;;;;44.30;16.35;;;;;;;2.07;100.00;101118.25;5134364;27;20487;-86
2022/01/18 08:46:57;;;;;;;34.78;14.60;;;;;;;2.11;100.00;101098.34;5135236;27;20047;-87
2022/01/18 08:49:24;;;;;;;48.05;15.05;;;;;;;2.34;100.00;101117.69;5135262;27;20047;-86
2022/01/18 08:51:51;;;;;;;35.03;13.95;;;;;;;2.45;100.00;101112.63;5133359;27;20047;-85
2022/01/18 08:54:30;;;;;;;35.45;14.15;;;;;;;2.54;100.00;101116.59;5134195;27;20572;-86
2022/01/18 08:56:57;;;;;;;32.35;13.35;;;;;;;2.70;100.00;101108.53;5135003;27;20108;-85
2022/01/18 08:59:29;;;;;;;34.28;13.80;;;;;;;2.73;100.00;101097.63;5135042;27;20133;-86
2022/01/18 09:02:30;;;;;;;36.67;13.13;;;;;;;2.76;100.00;101112.72;5135251;27;20063;-87
2022/01/18 09:05:11;;;;;;;34.22;13.80;;;;;;;2.90;100.00;101118.16;5129744;27;20496;-88
2022/01/18 09:08:07;;;;;;;29.00;12.90;;;;;;;2.97;100.00;101106.09;5133182;27;20050;-88
2022/01/18 13:04:28;;;;;;;3.40;1.83;;;;;;;4.38;100.00;101006.97;5129709;27;20436;-84
2022/01/18 13:06:56;;;;;;;2.58;1.27;;;;;;;4.50;100.00;101013.38;5120527;28;20495;-84
2022/01/18 13:09:22;;;;;;;4.40;2.00;;;;;;;4.42;100.00;100989.63;5130235;28;20057;-83
2022/01/18 13:11:49;;;;;;;5.55;1.90;;;;;;;4.55;100.00;101013.94;5125832;28;20501;-83
2022/01/18 13:14:19;;;;;;;5.47;1.98;;;;;;;4.42;100.00;100989.63;5126141;27;20050;-84
2022/01/18 13:27:48;;;;;;;17.33;5.80;;;;;;;4.59;100.00;101004.69;5129719;28;20055;-84
2022/01/18 13:30:21;;;;;;;10.93;4.32;;;;;;;4.64;100.00;100992.72;5128377;28;20058;-84
2022/01/18 13:32:49;;;;;;;3.10;2.03;;;;;;;4.51;100.00;100980.06;5129383;28;20096;-83
2022/01/18 13:35:20;;;;;;;2.38;1.58;;;;;;;4.65;100.00;100998.00;5129388;28;20102;-84
2022/01/18 13:37:48;;;;;;;6.22;2.30;;;;;;;4.66;100.00;100997.03;5117242;28;20101;-84
2022/01/18 13:40:18;;;;;;;6.53;2.22;;;;;;;4.63;100.00;100994.56;5112442;28;20040;-83
2022/01/18 13:42:48;;;;;;;4.70;1.73;;;;;;;4.51;99.75;100990.00;5120525;28;20113;-83
2022/01/18 13:45:17;;;;;;;;;;;;;;;4.56;99.74;100996.81;5112415;28;20047;-83
2022/01/18 13:47:46;;;;;;;6.18;2.80;;;;;;;4.55;98.96;100981.59;5124549;28;19919;-83
2022/01/18 13:50:42;;;;;;;6.32;2.42;;;;;;;4.64;99.39;100984.63;5124783;28;20067;-84
2022/01/18 13:53:13;;;;;;;4.15;2.22;;;;;;;4.52;100.00;100979.13;5111597;28;20050;-83
2022/01/18 13:55:49;;;;;;;5.05;2.00;;;;;;;4.67;100.00;100990.72;5125920;28;20130;-83
2022/01/18 13:58:21;;;;;;;4.72;1.98;;;;;;;4.60;98.36;100986.69;5125816;28;20046;-83
2022/01/18 14:00:48;;;;;;;3.67;2.05;;;;;;;4.53;94.06;100988.03;5114509;28;20044;-83
2022/01/18 14:03:32;;;;;;;9.90;4.70;;;;;;;4.48;98.89;100991.03;5112468;28;20070;-84
2022/01/18 14:05:59;;;;;;;7.95;2.70;;;;;;;4.50;100.00;100980.16;5122382;28;20054;-83
2022/01/18 14:08:34;;;;;;;8.18;2.45;;;;;;;4.59;95.94;100983.13;5128896;28;20040;-83
2022/01/18 14:11:06;;;;;;;12.40;2.58;;;;;;;4.66;96.49;100982.72;5110953;28;20479;-83
2022/01/18 14:13:36;;;;;;;6.50;2.97;;;;;;;4.64;100.00;100990.91;5123797;27;20092;-83
2022/01/18 14:16:04;;;;;;;3.80;1.88;;;;;;;4.60;93.28;100982.16;5109304;28;20062;-83
2022/01/18 14:18:49;;;;;;;4.70;2.25;;;;;;;4.57;96.77;100976.97;5100558;28;20140;-83
2022/01/18 14:21:31;;;;;;;5.30;2.67;;;;;;;4.66;96.29;100993.50;5104767;28;20051;-83
2022/01/18 14:24:17;;;;;;;12.20;1.95;;;;;;;4.71;95.32;100978.75;5111455;28;20519;-83
2022/01/18 14:27:08;;;;;;;3.05;1.67;;;;;;;4.66;95.84;100964.72;5108617;28;20071;-83
2022/01/18 14:29:56;;;;;;;5.75;2.30;;;;;;;4.67;96.76;100984.47;5107615;28;20052;-83
2022/01/18 14:32:36;;;;;;;7.63;2.00;;;;;;;4.52;97.34;100971.03;5107501;28;20052;-83
2022/01/18 14:35:15;;;;;;;7.60;2.05;;;;;;;4.63;97.72;100991.00;5107647;28;20051;-83
2022/01/18 14:37:47;;;;;;;3.97;1.70;;;;;;;4.49;96.67;100968.53;5106601;28;20471;-83
2022/01/18 14:40:19;;;;;;;5.47;2.08;;;;;;;4.58;97.55;100970.63;5104616;28;20079;-83
2022/01/18 14:42:50;;;;;;;3.83;1.92;;;;;;;4.53;97.52;100967.38;5099939;28;20048;-83
2022/01/18 14:48:08;;;;;;;5.85;2.17;;;;;;;4.72;96.08;100982.31;5095591;28;20059;-83
2022/01/18 14:50:36;;;;;;;3.65;1.83;;;;;;;4.66;98.39;100980.88;5113151;28;20048;-83
2022/01/18 14:53:04;;;;;;;4.90;2.58;;;;;;;4.65;96.36;100987.22;5111214;28;20051;-83
2022/01/18 14:55:33;;;;;;;4.57;2.50;;;;;;;4.56;95.23;100959.09;5104541;28;20079;-83
2022/01/18 14:58:03;;;;;;;3.92;2.08;;;;;;;4.61;94.04;100973.13;5104127;27;20055;-83
2022/01/18 15:00:32;;;;;;;14.40;6.20;;;;;;;4.45;96.59;100964.31;5102743;27;20449;-83
2022/01/18 15:03:00;;;;;;;8.80;3.15;;;;;;;4.51;97.26;100972.00;5112242;27;20440;-83
2022/01/18 15:05:29;;;;;;;8.85;3.55;;;;;;;4.41;97.57;100969.06;5110488;28;20075;-82
2022/01/18 15:07:56;;;;;;;7.07;3.17;;;;;;;4.59;96.86;100963.41;5103851;28;20044;-83
2022/01/18 15:10:24;;;;;;;6.03;2.78;;;;;;;4.66;97.54;100969.25;5111323;28;20490;-82
2022/01/18 15:12:56;;;;;;;8.05;2.50;;;;;;;4.49;97.93;100957.78;5112499;28;20471;-83
2022/01/18 15:15:29;;;;;;;5.47;1.77;;;;;;;4.40;100.00;100975.41;5113182;28;20047;-83
2022/01/18 15:17:57;;;;;;;5.47;2.75;;;;;;;4.38;100.00;100971.06;5082415;28;20102;-84
2022/01/18 15:20:25;;;;;;;7.88;2.35;;;;;;;4.20;100.00;100957.88;5102226;28;20059;-84
2022/01/18 15:22:52;;;;;;;3.50;1.98;;;;;;;4.21;100.00;100972.19;5097533;28;20054;-83
2022/01/18 15:25:21;;;;;;;6.93;2.42;;;;;;;4.43;100.00;100969.81;5099573;28;20059;-83
2022/01/18 15:27:49;;;;;;;6.25;2.53;;;;;;;4.47;100.00;100980.38;5105414;28;20485;-83
2022/01/18 15:30:18;;;;;;;7.18;2.92;;;;;;;4.30;100.00;100970.72;5098329;28;20514;-84
2022/01/18 15:32:46;;;;;;;4.28;2.40;;;;;;;4.42;97.47;100968.06;5104090;28;20065;-83
2022/01/18 15:35:15;;;;;;;7.38;1.95;;;;;;;4.40;99.75;100966.47;5101800;28;20253;-84
2022/01/18 15:37:42;;;;;;;19.50;9.27;;;;;;;4.23;100.00;100972.94;5107459;28;20049;-84
2022/01/18 15:40:11;;;;;;;7.38;4.18;;;;;;;4.17;100.00;100970.63;5099941;28;20063;-83
2022/01/18 15:42:40;;;;;;;6.07;2.90;;;;;;;4.12;100.00;100967.41;5101550;28;20464;-83
2022/01/18 15:45:11;;;;;;;4.20;2.15;;;;;;;4.13;100.00;100977.22;5101505;28;20072;-83
2022/01/18 15:47:40;;;;;;;5.90;2.70;;;;;;;4.18;100.00;100956.22;5104055;28;20411;-84
2022/01/18 15:50:09;;;;;;;5.77;2.47;;;;;;;4.07;100.00;100951.53;5097520;28;20044;-83
2022/01/18 15:52:36;;;;;;;7.03;2.05;;;;;;;4.09;100.00;100965.75;5099293;28;20074;-84
2022/01/18 15:55:04;;;;;;;5.13;2.53;;;;;;;4.22;100.00;100958.63;5093178;28;20047;-84
2022/01/18 15:57:31;;;;;;;4.43;2.42;;;;;;;4.28;100.00;100976.19;5101737;28;20055;-82
2022/01/18 15:59:58;;;;;;;5.97;2.50;;;;;;;4.35;100.00;100969.47;5100891;28;20233;-82
2022/01/18 16:02:26;;;;;;;6.05;2.60;;;;;;;4.24;100.00;100962.06;5091940;28;20062;-82
2022/01/18 16:04:55;;;;;;;6.05;2.40;;;;;;;4.12;100.00;100956.63;5106610;28;20454;-82
2022/01/18 16:07:22;;;;;;;2.90;2.10;;;;;;;4.12;100.00;100965.56;5109332;28;20051;-82
2022/01/18 16:09:48;;;;;;;4.68;2.20;;;;;;;4.16;100.00;100968.94;5095807;28;20101;-82
2022/01/18 16:12:15;;;;;;;6.90;1.70;;;;;;;4.06;100.00;100963.25;5094009;28;20048;-82
2022/01/18 16:14:42;;;;;;;5.07;2.13;;;;;;;3.86;100.00;100949.25;5100922;28;20043;-82
2022/01/18 16:17:09;;;;;;;7.93;1.95;;;;;;;3.89;100.00;100969.72;5102009;28;20059;-82
2022/01/18 16:19:35;;;;;;;6.28;2.33;;;;;;;3.92;100.00;100964.16;5097557;28;20409;-82
2022/01/18 16:22:04;;;;;;;6.82;2.22;;;;;;;3.96;100.00;100972.88;5103990;28;20036;-82
2022/01/18 16:24:31;;;;;;;3.75;2.08;;;;;;;3.95;100.00;100969.34;5100370;28;20480;-82
2022/01/18 16:26:58;;;;;;;5.63;2.65;;;;;;;3.87;100.00;100974.38;5105407;28;20040;-82